sensor_id;sensor_type;location;lat;lon;timestamp;P1;durP1;ratioP1;P2;durP2;ratioP2
50591;SDS011;36548;50.506;30.834;2023-06-24T00:00:00;13.68;;;11.93;;
50591;SDS011;36548;50.506;30.834;2023-06-24T00:01:18;11.40;;;10.22;;
50591;SDS011;36548;50.506;30.834;2023-06-24T00:02:28;10.60;;;8.90;;
50591;SDS011;36548;50.506;30.834;2023-06-24T00:03:43;9.50;;;8.70;;
50591;SDS011;36548;50.506;30.834;2023-06-24T00:06:13;9.38;;;8.43;;
50591;SDS011;36548;50.506;30.834;2023-06-24T00:07:33;9.07;;;8.32;;
50591;SDS011;36548;50.506;30.834;2023-06-24T00:08:45;10.10;;;8.67;;
50591;SDS011;36548;50.506;30.834;2023-06-24T00:10:01;10.25;;;8.27;;
50591;SDS011;36548;50.506;30.834;2023-06-24T00:11:12;8.07;;;7.25;;
50591;SDS011;36548;50.506;30.834;2023-06-24T00:12:29;8.07;;;7.33;;
50591;SDS011;36548;50.506;30.834;2023-06-24T00:13:40;8.00;;;7.30;;
50591;SDS011;36548;50.506;30.834;2023-06-24T00:14:57;7.15;;;6.50;;
50591;SDS011;36548;50.506;30.834;2023-06-24T00:16:05;10.17;;;8.47;;
50591;SDS011;36548;50.506;30.834;2023-06-24T00:17:19;16.55;;;14.90;;
50591;SDS011;36548;50.506;30.834;2023-06-24T00:18:35;24.30;;;21.95;;
50591;SDS011;36548;50.506;30.834;2023-06-24T00:19:45;61.92;;;55.90;;
50591;SDS011;36548;50.506;30.834;2023-06-24T00:21:00;27.00;;;24.37;;
50591;SDS011;36548;50.506;30.834;2023-06-24T00:22:10;16.58;;;14.47;;
50591;SDS011;36548;50.506;30.834;2023-06-24T00:23:27;20.02;;;16.33;;
50591;SDS011;36548;50.506;30.834;2023-06-24T00:24:37;22.83;;;18.17;;
50591;SDS011;36548;50.506;30.834;2023-06-24T00:25:54;22.32;;;17.05;;
50591;SDS011;36548;50.506;30.834;2023-06-24T00:27:05;22.74;;;16.82;;
50591;SDS011;36548;50.506;30.834;2023-06-24T00:28:26;21.43;;;16.43;;
50591;SDS011;36548;50.506;30.834;2023-06-24T00:29:36;19.45;;;15.10;;
50591;SDS011;36548;50.506;30.834;2023-06-24T00:30:52;14.18;;;12.57;;
50591;SDS011;36548;50.506;30.834;2023-06-24T00:32:03;11.20;;;10.05;;
50591;SDS011;36548;50.506;30.834;2023-06-24T00:33:27;13.20;;;11.78;;
50591;SDS011;36548;50.506;30.834;2023-06-24T00:35:55;23.83;;;21.37;;
50591;SDS011;36548;50.506;30.834;2023-06-24T00:37:06;15.00;;;11.45;;
50591;SDS011;36548;50.506;30.834;2023-06-24T00:38:15;11.20;;;10.10;;
50591;SDS011;36548;50.506;30.834;2023-06-24T00:39:30;12.27;;;10.05;;
50591;SDS011;36548;50.506;30.834;2023-06-24T00:40:41;16.30;;;14.50;;
50591;SDS011;36548;50.506;30.834;2023-06-24T01:41:26;15.03;;;9.52;;
50591;SDS011;36548;50.506;30.834;2023-06-24T01:42:40;9.37;;;8.57;;
50591;SDS011;36548;50.506;30.834;2023-06-24T01:43:52;10.33;;;9.38;;
50591;SDS011;36548;50.506;30.834;2023-06-24T01:45:05;10.53;;;9.60;;
50591;SDS011;36548;50.506;30.834;2023-06-24T01:46:24;11.18;;;10.25;;
50591;SDS011;36548;50.506;30.834;2023-06-24T01:47:34;11.72;;;10.62;;
50591;SDS011;36548;50.506;30.834;2023-06-24T01:48:46;10.28;;;9.33;;
50591;SDS011;36548;50.506;30.834;2023-06-24T01:50:05;10.58;;;9.60;;
50591;SDS011;36548;50.506;30.834;2023-06-24T01:51:19;12.53;;;11.18;;
50591;SDS011;36548;50.506;30.834;2023-06-24T01:52:38;11.93;;;10.83;;
50591;SDS011;36548;50.506;30.834;2023-06-24T01:53:52;12.15;;;10.97;;
50591;SDS011;36548;50.506;30.834;2023-06-24T01:55:11;11.32;;;10.32;;
50591;SDS011;36548;50.506;30.834;2023-06-24T01:56:25;14.57;;;11.15;;
50591;SDS011;36548;50.506;30.834;2023-06-24T01:57:43;11.75;;;10.63;;
50591;SDS011;36548;50.506;30.834;2023-06-24T01:58:55;11.70;;;10.70;;
50591;SDS011;36548;50.506;30.834;2023-06-24T02:00:13;12.13;;;11.05;;
50591;SDS011;36548;50.506;30.834;2023-06-24T02:01:32;11.93;;;10.78;;
50591;SDS011;36548;50.506;30.834;2023-06-24T02:02:50;13.22;;;12.00;;
50591;SDS011;36548;50.506;30.834;2023-06-24T02:04:02;12.72;;;11.48;;
50591;SDS011;36548;50.506;30.834;2023-06-24T02:05:19;12.27;;;11.05;;
50591;SDS011;36548;50.506;30.834;2023-06-24T02:06:32;12.52;;;11.32;;
50591;SDS011;36548;50.506;30.834;2023-06-24T02:07:44;13.03;;;11.25;;
50591;SDS011;36548;50.506;30.834;2023-06-24T02:08:56;12.53;;;11.43;;
50591;SDS011;36548;50.506;30.834;2023-06-24T02:10:15;12.08;;;10.93;;
50591;SDS011;36548;50.506;30.834;2023-06-24T02:11:26;13.30;;;10.93;;
50591;SDS011;36548;50.506;30.834;2023-06-24T02:12:46;12.90;;;11.55;;
50591;SDS011;36548;50.506;30.834;2023-06-24T02:13:57;14.10;;;11.97;;
50591;SDS011;36548;50.506;30.834;2023-06-24T02:15:16;13.87;;;12.43;;
50591;SDS011;36548;50.506;30.834;2023-06-24T02:16:28;12.38;;;11.10;;
50591;SDS011;36548;50.506;30.834;2023-06-24T02:17:45;11.67;;;10.60;;
50591;SDS011;36548;50.506;30.834;2023-06-24T02:18:57;12.02;;;10.90;;
50591;SDS011;36548;50.506;30.834;2023-06-24T02:20:14;11.80;;;10.70;;
50591;SDS011;36548;50.506;30.834;2023-06-24T02:21:26;12.38;;;11.17;;
50591;SDS011;36548;50.506;30.834;2023-06-24T02:22:43;11.47;;;10.33;;
50591;SDS011;36548;50.506;30.834;2023-06-24T02:23:53;12.20;;;11.15;;
50591;SDS011;36548;50.506;30.834;2023-06-24T02:25:10;12.62;;;11.18;;
50591;SDS011;36548;50.506;30.834;2023-06-24T02:26:22;12.43;;;11.27;;
50591;SDS011;36548;50.506;30.834;2023-06-24T02:27:41;12.75;;;11.37;;
50591;SDS011;36548;50.506;30.834;2023-06-24T02:31:16;15.40;;;11.58;;
50591;SDS011;36548;50.506;30.834;2023-06-24T02:32:33;12.73;;;11.52;;
50591;SDS011;36548;50.506;30.834;2023-06-24T02:33:44;12.92;;;11.60;;
50591;SDS011;36548;50.506;30.834;2023-06-24T02:35:00;12.25;;;10.95;;
50591;SDS011;36548;50.506;30.834;2023-06-24T02:36:10;12.05;;;10.90;;
50591;SDS011;36548;50.506;30.834;2023-06-24T02:38:30;11.45;;;10.20;;
50591;SDS011;36548;50.506;30.834;2023-06-24T02:39:46;11.93;;;10.80;;
50591;SDS011;36548;50.506;30.834;2023-06-24T02:40:55;11.65;;;10.55;;
50591;SDS011;36548;50.506;30.834;2023-06-24T02:42:13;14.57;;;10.67;;
50591;SDS011;36548;50.506;30.834;2023-06-24T02:43:22;14.10;;;11.30;;
50591;SDS011;36548;50.506;30.834;2023-06-24T02:44:39;11.52;;;10.52;;
50591;SDS011;36548;50.506;30.834;2023-06-24T02:45:50;12.28;;;11.15;;
50591;SDS011;36548;50.506;30.834;2023-06-24T02:47:09;11.90;;;10.70;;
50591;SDS011;36548;50.506;30.834;2023-06-24T02:48:20;13.02;;;10.82;;
50591;SDS011;36548;50.506;30.834;2023-06-24T02:49:32;11.13;;;10.03;;
50591;SDS011;36548;50.506;30.834;2023-06-24T02:50:50;11.52;;;10.40;;
50591;SDS011;36548;50.506;30.834;2023-06-24T02:52:00;12.05;;;10.32;;
50591;SDS011;36548;50.506;30.834;2023-06-24T02:53:15;11.70;;;10.62;;
50591;SDS011;36548;50.506;30.834;2023-06-24T02:54:25;10.90;;;9.80;;
50591;SDS011;36548;50.506;30.834;2023-06-24T02:55:41;11.47;;;10.42;;
50591;SDS011;36548;50.506;30.834;2023-06-24T02:56:53;11.37;;;10.20;;
50591;SDS011;36548;50.506;30.834;2023-06-24T02:58:11;13.55;;;10.90;;
50591;SDS011;36548;50.506;30.834;2023-06-24T02:59:27;12.60;;;11.07;;
50591;SDS011;36548;50.506;30.834;2023-06-24T03:00:43;12.98;;;10.62;;
50591;SDS011;36548;50.506;30.834;2023-06-24T03:02:16;11.27;;;9.80;;
50591;SDS011;36548;50.506;30.834;2023-06-24T03:03:31;11.52;;;10.47;;
50591;SDS011;36548;50.506;30.834;2023-06-24T03:04:42;11.75;;;10.50;;
50591;SDS011;36548;50.506;30.834;2023-06-24T03:05:57;11.20;;;10.15;;
50591;SDS011;36548;50.506;30.834;2023-06-24T03:07:11;11.50;;;10.38;;
50591;SDS011;36548;50.506;30.834;2023-06-24T03:08:22;12.25;;;10.98;;
50591;SDS011;36548;50.506;30.834;2023-06-24T03:09:38;15.32;;;10.85;;
50591;SDS011;36548;50.506;30.834;2023-06-24T03:10:56;11.04;;;9.98;;
50591;SDS011;36548;50.506;30.834;2023-06-24T03:12:11;12.12;;;10.87;;
50591;SDS011;36548;50.506;30.834;2023-06-24T03:13:23;12.43;;;11.27;;
50591;SDS011;36548;50.506;30.834;2023-06-24T03:14:39;13.17;;;11.67;;
50591;SDS011;36548;50.506;30.834;2023-06-24T03:15:48;13.28;;;11.57;;
50591;SDS011;36548;50.506;30.834;2023-06-24T03:16:58;13.13;;;11.93;;
50591;SDS011;36548;50.506;30.834;2023-06-24T03:18:10;12.20;;;11.07;;
50591;SDS011;36548;50.506;30.834;2023-06-24T03:19:26;13.05;;;11.82;;
50591;SDS011;36548;50.506;30.834;2023-06-24T03:20:36;12.45;;;11.30;;
50591;SDS011;36548;50.506;30.834;2023-06-24T03:21:53;12.65;;;11.08;;
50591;SDS011;36548;50.506;30.834;2023-06-24T03:23:02;12.56;;;11.30;;
50591;SDS011;36548;50.506;30.834;2023-06-24T03:24:18;11.98;;;10.77;;
50591;SDS011;36548;50.506;30.834;2023-06-24T03:25:29;12.55;;;11.17;;
50591;SDS011;36548;50.506;30.834;2023-06-24T03:27:04;11.75;;;10.72;;
50591;SDS011;36548;50.506;30.834;2023-06-24T03:28:15;12.30;;;11.07;;
50591;SDS011;36548;50.506;30.834;2023-06-24T03:29:30;12.07;;;11.00;;
50591;SDS011;36548;50.506;30.834;2023-06-24T03:30:44;12.38;;;11.18;;
50591;SDS011;36548;50.506;30.834;2023-06-24T03:31:59;12.83;;;10.82;;
50591;SDS011;36548;50.506;30.834;2023-06-24T03:33:09;13.15;;;11.15;;
50591;SDS011;36548;50.506;30.834;2023-06-24T03:34:44;22.08;;;12.62;;
50591;SDS011;36548;50.506;30.834;2023-06-24T03:35:54;38.37;;;12.85;;
50591;SDS011;36548;50.506;30.834;2023-06-24T03:37:10;21.42;;;11.50;;
50591;SDS011;36548;50.506;30.834;2023-06-24T03:38:21;12.22;;;11.05;;
50591;SDS011;36548;50.506;30.834;2023-06-24T03:39:31;13.68;;;11.72;;
50591;SDS011;36548;50.506;30.834;2023-06-24T03:40:46;12.23;;;11.12;;
50591;SDS011;36548;50.506;30.834;2023-06-24T03:41:57;13.30;;;11.85;;
50591;SDS011;36548;50.506;30.834;2023-06-24T03:43:12;12.33;;;11.28;;
50591;SDS011;36548;50.506;30.834;2023-06-24T03:44:22;12.37;;;11.17;;
50591;SDS011;36548;50.506;30.834;2023-06-24T03:45:32;13.80;;;11.15;;
50591;SDS011;36548;50.506;30.834;2023-06-24T03:46:42;13.05;;;11.25;;
50591;SDS011;36548;50.506;30.834;2023-06-24T03:47:58;12.02;;;10.88;;
50591;SDS011;36548;50.506;30.834;2023-06-24T03:49:08;14.25;;;11.48;;
50591;SDS011;36548;50.506;30.834;2023-06-24T03:50:17;13.13;;;11.47;;
50591;SDS011;36548;50.506;30.834;2023-06-24T03:51:32;14.78;;;10.62;;
50591;SDS011;36548;50.506;30.834;2023-06-24T03:52:41;11.43;;;10.32;;
50591;SDS011;36548;50.506;30.834;2023-06-24T03:53:58;12.50;;;10.57;;
50591;SDS011;36548;50.506;30.834;2023-06-24T03:55:08;12.10;;;10.85;;
50591;SDS011;36548;50.506;30.834;2023-06-24T03:56:24;14.17;;;10.42;;
50591;SDS011;36548;50.506;30.834;2023-06-24T03:57:33;13.38;;;11.97;;
50591;SDS011;36548;50.506;30.834;2023-06-24T03:58:49;11.78;;;10.68;;
50591;SDS011;36548;50.506;30.834;2023-06-24T03:59:58;11.80;;;10.75;;
50591;SDS011;36548;50.506;30.834;2023-06-24T04:01:14;11.37;;;10.27;;
50591;SDS011;36548;50.506;30.834;2023-06-24T04:02:25;11.80;;;10.60;;
50591;SDS011;36548;50.506;30.834;2023-06-24T04:03:42;11.28;;;10.20;;
50591;SDS011;36548;50.506;30.834;2023-06-24T04:04:53;11.27;;;10.22;;
50591;SDS011;36548;50.506;30.834;2023-06-24T04:06:04;11.52;;;10.38;;
50591;SDS011;36548;50.506;30.834;2023-06-24T04:07:20;11.90;;;10.90;;
50591;SDS011;36548;50.506;30.834;2023-06-24T04:08:31;12.20;;;10.97;;
50591;SDS011;36548;50.506;30.834;2023-06-24T04:09:46;11.03;;;10.07;;
50591;SDS011;36548;50.506;30.834;2023-06-24T04:10:56;11.37;;;10.25;;
50591;SDS011;36548;50.506;30.834;2023-06-24T04:12:14;11.12;;;10.12;;
50591;SDS011;36548;50.506;30.834;2023-06-24T04:13:23;11.13;;;10.12;;
50591;SDS011;36548;50.506;30.834;2023-06-24T04:14:38;10.05;;;9.15;;
50591;SDS011;36548;50.506;30.834;2023-06-24T04:15:48;10.82;;;9.82;;
50591;SDS011;36548;50.506;30.834;2023-06-24T04:17:04;11.17;;;10.17;;
50591;SDS011;36548;50.506;30.834;2023-06-24T04:18:15;11.47;;;10.42;;
50591;SDS011;36548;50.506;30.834;2023-06-24T04:19:31;10.07;;;9.15;;
50591;SDS011;36548;50.506;30.834;2023-06-24T04:20:41;10.60;;;9.65;;
50591;SDS011;36548;50.506;30.834;2023-06-24T04:21:58;10.77;;;9.43;;
50591;SDS011;36548;50.506;30.834;2023-06-24T04:23:07;10.33;;;9.38;;
50591;SDS011;36548;50.506;30.834;2023-06-24T04:24:24;11.33;;;10.08;;
50591;SDS011;36548;50.506;30.834;2023-06-24T04:25:33;10.98;;;9.93;;
50591;SDS011;36548;50.506;30.834;2023-06-24T04:27:09;10.33;;;9.43;;
50591;SDS011;36548;50.506;30.834;2023-06-24T04:28:18;11.65;;;9.75;;
50591;SDS011;36548;50.506;30.834;2023-06-24T04:29:33;10.85;;;9.47;;
50591;SDS011;36548;50.506;30.834;2023-06-24T04:30:44;10.35;;;9.48;;
50591;SDS011;36548;50.506;30.834;2023-06-24T04:32:00;10.87;;;9.87;;
50591;SDS011;36548;50.506;30.834;2023-06-24T04:33:09;10.45;;;9.50;;
50591;SDS011;36548;50.506;30.834;2023-06-24T04:34:24;10.42;;;9.52;;
50591;SDS011;36548;50.506;30.834;2023-06-24T04:35:33;10.80;;;9.90;;
50591;SDS011;36548;50.506;30.834;2023-06-24T04:36:43;11.28;;;9.98;;
50591;SDS011;36548;50.506;30.834;2023-06-24T04:37:54;10.67;;;9.63;;
50591;SDS011;36548;50.506;30.834;2023-06-24T04:39:09;11.00;;;10.00;;
50591;SDS011;36548;50.506;30.834;2023-06-24T04:40:20;9.88;;;8.93;;
50591;SDS011;36548;50.506;30.834;2023-06-24T04:41:35;12.17;;;10.08;;
50591;SDS011;36548;50.506;30.834;2023-06-24T04:42:45;10.97;;;9.97;;
50591;SDS011;36548;50.506;30.834;2023-06-24T04:44:01;10.92;;;9.25;;
50591;SDS011;36548;50.506;30.834;2023-06-24T04:46:31;13.22;;;11.85;;
50591;SDS011;36548;50.506;30.834;2023-06-24T04:47:45;11.03;;;9.93;;
50591;SDS011;36548;50.506;30.834;2023-06-24T04:49:01;10.98;;;10.02;;
50591;SDS011;36548;50.506;30.834;2023-06-24T04:50:10;11.65;;;10.65;;
50591;SDS011;36548;50.506;30.834;2023-06-24T04:51:20;14.20;;;12.70;;
50591;SDS011;36548;50.506;30.834;2023-06-24T04:52:30;12.35;;;11.10;;
50591;SDS011;36548;50.506;30.834;2023-06-24T04:53:45;12.20;;;11.00;;
50591;SDS011;36548;50.506;30.834;2023-06-24T04:54:54;11.58;;;10.48;;
50591;SDS011;36548;50.506;30.834;2023-06-24T04:56:03;11.74;;;10.66;;
50591;SDS011;36548;50.506;30.834;2023-06-24T04:57:22;12.73;;;10.83;;
50591;SDS011;36548;50.506;30.834;2023-06-24T04:58:35;12.83;;;11.63;;
50591;SDS011;36548;50.506;30.834;2023-06-24T04:59:45;13.27;;;11.35;;
50591;SDS011;36548;50.506;30.834;2023-06-24T05:00:55;12.65;;;11.40;;
50591;SDS011;36548;50.506;30.834;2023-06-24T05:02:12;12.70;;;11.50;;
50591;SDS011;36548;50.506;30.834;2023-06-24T05:03:21;12.27;;;11.00;;
50591;SDS011;36548;50.506;30.834;2023-06-24T05:04:36;12.55;;;11.35;;
50591;SDS011;36548;50.506;30.834;2023-06-24T05:05:45;12.40;;;11.18;;
50591;SDS011;36548;50.506;30.834;2023-06-24T05:07:01;11.78;;;10.60;;
50591;SDS011;36548;50.506;30.834;2023-06-24T05:08:12;13.38;;;10.98;;
50591;SDS011;36548;50.506;30.834;2023-06-24T05:09:27;12.20;;;11.05;;
50591;SDS011;36548;50.506;30.834;2023-06-24T05:10:38;12.20;;;11.05;;
50591;SDS011;36548;50.506;30.834;2023-06-24T05:11:47;12.37;;;11.22;;
50591;SDS011;36548;50.506;30.834;2023-06-24T05:13:02;11.98;;;10.92;;
50591;SDS011;36548;50.506;30.834;2023-06-24T05:14:11;12.07;;;10.87;;
50591;SDS011;36548;50.506;30.834;2023-06-24T05:15:20;12.43;;;11.25;;
50591;SDS011;36548;50.506;30.834;2023-06-24T05:16:33;12.32;;;11.12;;
50591;SDS011;36548;50.506;30.834;2023-06-24T05:17:47;12.22;;;11.07;;
50591;SDS011;36548;50.506;30.834;2023-06-24T05:18:59;12.17;;;10.98;;
50591;SDS011;36548;50.506;30.834;2023-06-24T05:20:10;11.90;;;10.80;;
50591;SDS011;36548;50.506;30.834;2023-06-24T05:21:25;12.30;;;11.20;;
50591;SDS011;36548;50.506;30.834;2023-06-24T05:22:35;11.97;;;10.97;;
50591;SDS011;36548;50.506;30.834;2023-06-24T05:26:04;11.80;;;10.66;;
50591;SDS011;36548;50.506;30.834;2023-06-24T05:27:14;12.45;;;11.33;;
50591;SDS011;36548;50.506;30.834;2023-06-24T05:28:29;12.82;;;11.48;;
50591;SDS011;36548;50.506;30.834;2023-06-24T05:29:39;13.25;;;12.05;;
50591;SDS011;36548;50.506;30.834;2023-06-24T05:30:55;13.23;;;11.90;;
50591;SDS011;36548;50.506;30.834;2023-06-24T05:32:06;13.05;;;11.82;;
50591;SDS011;36548;50.506;30.834;2023-06-24T05:33:22;13.02;;;11.35;;
50591;SDS011;36548;50.506;30.834;2023-06-24T05:34:32;13.05;;;11.85;;
50591;SDS011;36548;50.506;30.834;2023-06-24T05:35:56;13.27;;;11.73;;
50591;SDS011;36548;50.506;30.834;2023-06-24T05:37:06;12.73;;;11.53;;
50591;SDS011;36548;50.506;30.834;2023-06-24T05:38:22;12.83;;;10.93;;
50591;SDS011;36548;50.506;30.834;2023-06-24T05:39:31;13.50;;;11.87;;
50591;SDS011;36548;50.506;30.834;2023-06-24T05:40:46;13.52;;;12.03;;
50591;SDS011;36548;50.506;30.834;2023-06-24T05:41:57;13.25;;;10.90;;
50591;SDS011;36548;50.506;30.834;2023-06-24T05:43:12;12.87;;;11.67;;
50591;SDS011;36548;50.506;30.834;2023-06-24T05:44:20;13.55;;;12.05;;
50591;SDS011;36548;50.506;30.834;2023-06-24T05:45:32;13.93;;;12.53;;
50591;SDS011;36548;50.506;30.834;2023-06-24T05:46:43;13.40;;;11.90;;
50591;SDS011;36548;50.506;30.834;2023-06-24T05:49:07;14.23;;;12.40;;
50591;SDS011;36548;50.506;30.834;2023-06-24T05:50:18;14.58;;;11.68;;
50591;SDS011;36548;50.506;30.834;2023-06-24T05:51:34;14.15;;;12.75;;
50591;SDS011;36548;50.506;30.834;2023-06-24T05:52:43;12.80;;;11.60;;
50591;SDS011;36548;50.506;30.834;2023-06-24T05:53:52;12.90;;;11.65;;
50591;SDS011;36548;50.506;30.834;2023-06-24T05:55:07;13.25;;;12.05;;
50591;SDS011;36548;50.506;30.834;2023-06-24T05:56:17;13.40;;;11.25;;
50591;SDS011;36548;50.506;30.834;2023-06-24T05:57:27;12.15;;;11.10;;
50591;SDS011;36548;50.506;30.834;2023-06-24T05:58:43;13.28;;;12.07;;
50591;SDS011;36548;50.506;30.834;2023-06-24T05:59:53;13.60;;;12.04;;
50591;SDS011;36548;50.506;30.834;2023-06-24T06:01:03;13.32;;;12.10;;
50591;SDS011;36548;50.506;30.834;2023-06-24T06:02:18;14.07;;;11.43;;
50591;SDS011;36548;50.506;30.834;2023-06-24T06:03:27;13.12;;;11.77;;
50591;SDS011;36548;50.506;30.834;2023-06-24T06:04:36;12.98;;;11.62;;
50591;SDS011;36548;50.506;30.834;2023-06-24T06:05:52;13.58;;;12.13;;
50591;SDS011;36548;50.506;30.834;2023-06-24T06:07:01;13.88;;;12.60;;
50591;SDS011;36548;50.506;30.834;2023-06-24T06:08:17;12.55;;;11.28;;
50591;SDS011;36548;50.506;30.834;2023-06-24T06:09:26;13.32;;;12.03;;
50591;SDS011;36548;50.506;30.834;2023-06-24T06:10:41;12.97;;;11.38;;
50591;SDS011;36548;50.506;30.834;2023-06-24T06:11:50;15.05;;;11.27;;
50591;SDS011;36548;50.506;30.834;2023-06-24T06:13:06;13.25;;;12.00;;
50591;SDS011;36548;50.506;30.834;2023-06-24T06:14:14;13.05;;;11.85;;
50591;SDS011;36548;50.506;30.834;2023-06-24T06:15:23;12.23;;;11.20;;
50591;SDS011;36548;50.506;30.834;2023-06-24T06:16:39;13.27;;;11.67;;
50591;SDS011;36548;50.506;30.834;2023-06-24T06:17:48;12.53;;;11.32;;
50591;SDS011;36548;50.506;30.834;2023-06-24T06:19:23;12.47;;;11.22;;
50591;SDS011;36548;50.506;30.834;2023-06-24T06:20:36;12.37;;;11.05;;
50591;SDS011;36548;50.506;30.834;2023-06-24T06:21:52;12.27;;;10.95;;
50591;SDS011;36548;50.506;30.834;2023-06-24T06:23:02;12.22;;;11.08;;
50591;SDS011;36548;50.506;30.834;2023-06-24T06:24:17;12.08;;;10.78;;
50591;SDS011;36548;50.506;30.834;2023-06-24T06:25:26;13.33;;;10.73;;
50591;SDS011;36548;50.506;30.834;2023-06-24T06:26:40;13.93;;;10.65;;
50591;SDS011;36548;50.506;30.834;2023-06-24T06:27:59;13.17;;;11.68;;
50591;SDS011;36548;50.506;30.834;2023-06-24T06:29:10;14.78;;;10.82;;
50591;SDS011;36548;50.506;30.834;2023-06-24T06:30:20;12.68;;;10.75;;
50591;SDS011;36548;50.506;30.834;2023-06-24T06:31:30;11.63;;;10.17;;
50591;SDS011;36548;50.506;30.834;2023-06-24T06:32:45;12.93;;;10.68;;
50591;SDS011;36548;50.506;30.834;2023-06-24T06:33:54;11.42;;;10.30;;
50591;SDS011;36548;50.506;30.834;2023-06-24T06:35:09;13.25;;;10.45;;
50591;SDS011;36548;50.506;30.834;2023-06-24T06:36:20;11.15;;;9.95;;
50591;SDS011;36548;50.506;30.834;2023-06-24T06:38:40;11.85;;;9.95;;
50591;SDS011;36548;50.506;30.834;2023-06-24T06:39:56;10.77;;;9.57;;
50591;SDS011;36548;50.506;30.834;2023-06-24T06:41:05;11.63;;;10.05;;
50591;SDS011;36548;50.506;30.834;2023-06-24T06:42:21;10.90;;;9.80;;
50591;SDS011;36548;50.506;30.834;2023-06-24T06:43:30;11.83;;;10.30;;
50591;SDS011;36548;50.506;30.834;2023-06-24T06:44:38;11.65;;;9.88;;
50591;SDS011;36548;50.506;30.834;2023-06-24T06:45:54;11.50;;;10.05;;
50591;SDS011;36548;50.506;30.834;2023-06-24T06:47:04;11.40;;;9.70;;
50591;SDS011;36548;50.506;30.834;2023-06-24T06:48:21;11.47;;;9.83;;
50591;SDS011;36548;50.506;30.834;2023-06-24T06:49:31;12.50;;;9.58;;
50591;SDS011;36548;50.506;30.834;2023-06-24T06:50:46;10.87;;;9.72;;
50591;SDS011;36548;50.506;30.834;2023-06-24T06:51:58;11.70;;;10.47;;
50591;SDS011;36548;50.506;30.834;2023-06-24T06:53:14;11.90;;;10.47;;
50591;SDS011;36548;50.506;30.834;2023-06-24T06:54:24;13.48;;;10.38;;
50591;SDS011;36548;50.506;30.834;2023-06-24T06:55:36;15.12;;;10.04;;
50591;SDS011;36548;50.506;30.834;2023-06-24T06:56:48;12.65;;;10.92;;
50591;SDS011;36548;50.506;30.834;2023-06-24T06:58:04;11.03;;;9.75;;
50591;SDS011;36548;50.506;30.834;2023-06-24T06:59:13;11.72;;;10.35;;
50591;SDS011;36548;50.506;30.834;2023-06-24T07:00:24;12.35;;;10.15;;
50591;SDS011;36548;50.506;30.834;2023-06-24T07:01:39;13.45;;;10.22;;
50591;SDS011;36548;50.506;30.834;2023-06-24T07:02:48;12.10;;;10.93;;
50591;SDS011;36548;50.506;30.834;2023-06-24T07:04:03;11.90;;;10.68;;
50591;SDS011;36548;50.506;30.834;2023-06-24T07:05:12;11.82;;;10.48;;
50591;SDS011;36548;50.506;30.834;2023-06-24T07:06:27;18.30;;;10.98;;
50591;SDS011;36548;50.506;30.834;2023-06-24T07:07:37;11.58;;;10.28;;
50591;SDS011;36548;50.506;30.834;2023-06-24T07:08:52;13.42;;;10.42;;
50591;SDS011;36548;50.506;30.834;2023-06-24T07:10:02;12.60;;;11.20;;
50591;SDS011;36548;50.506;30.834;2023-06-24T07:11:24;11.73;;;10.57;;
50591;SDS011;36548;50.506;30.834;2023-06-24T07:12:33;12.22;;;10.60;;
50591;SDS011;36548;50.506;30.834;2023-06-24T07:13:48;16.86;;;11.88;;
50591;SDS011;36548;50.506;30.834;2023-06-24T07:14:59;14.47;;;10.88;;
50591;SDS011;36548;50.506;30.834;2023-06-24T07:16:15;12.98;;;11.47;;
50591;SDS011;36548;50.506;30.834;2023-06-24T07:17:24;12.25;;;10.93;;
50591;SDS011;36548;50.506;30.834;2023-06-24T07:18:39;12.92;;;11.50;;
50591;SDS011;36548;50.506;30.834;2023-06-24T07:19:49;14.03;;;12.40;;
50591;SDS011;36548;50.506;30.834;2023-06-24T07:21:00;12.90;;;11.50;;
50591;SDS011;36548;50.506;30.834;2023-06-24T07:22:10;12.92;;;11.57;;
50591;SDS011;36548;50.506;30.834;2023-06-24T07:23:25;14.38;;;11.88;;
50591;SDS011;36548;50.506;30.834;2023-06-24T07:24:37;17.77;;;13.32;;
50591;SDS011;36548;50.506;30.834;2023-06-24T07:25:47;19.95;;;15.05;;
50591;SDS011;36548;50.506;30.834;2023-06-24T07:26:56;20.52;;;15.72;;
50591;SDS011;36548;50.506;30.834;2023-06-24T07:28:06;22.07;;;18.15;;
50591;SDS011;36548;50.506;30.834;2023-06-24T07:29:25;23.55;;;18.68;;
50591;SDS011;36548;50.506;30.834;2023-06-24T07:30:34;26.48;;;19.85;;
50591;SDS011;36548;50.506;30.834;2023-06-24T07:31:42;27.42;;;19.82;;
50591;SDS011;36548;50.506;30.834;2023-06-24T07:32:58;25.35;;;19.48;;
50591;SDS011;36548;50.506;30.834;2023-06-24T07:34:09;26.30;;;20.55;;
50591;SDS011;36548;50.506;30.834;2023-06-24T07:35:21;28.84;;;21.94;;
50591;SDS011;36548;50.506;30.834;2023-06-24T07:36:36;35.12;;;25.28;;
50591;SDS011;36548;50.506;30.834;2023-06-24T07:37:45;29.97;;;24.25;;
50591;SDS011;36548;50.506;30.834;2023-06-24T07:39:01;34.08;;;25.33;;
50591;SDS011;36548;50.506;30.834;2023-06-24T07:40:11;38.50;;;27.05;;
50591;SDS011;36548;50.506;30.834;2023-06-24T07:41:27;35.47;;;27.02;;
50591;SDS011;36548;50.506;30.834;2023-06-24T07:42:36;39.23;;;28.05;;
50591;SDS011;36548;50.506;30.834;2023-06-24T07:44:12;36.65;;;27.35;;
50591;SDS011;36548;50.506;30.834;2023-06-24T07:45:21;37.80;;;28.15;;
50591;SDS011;36548;50.506;30.834;2023-06-24T07:46:37;37.78;;;28.90;;
50591;SDS011;36548;50.506;30.834;2023-06-24T07:47:46;40.57;;;27.50;;
50591;SDS011;36548;50.506;30.834;2023-06-24T07:49:01;40.92;;;27.12;;
50591;SDS011;36548;50.506;30.834;2023-06-24T07:50:10;39.76;;;28.22;;
50591;SDS011;36548;50.506;30.834;2023-06-24T07:51:25;42.70;;;28.52;;
50591;SDS011;36548;50.506;30.834;2023-06-24T07:52:35;41.47;;;28.73;;
50591;SDS011;36548;50.506;30.834;2023-06-24T07:53:50;44.85;;;32.98;;
50591;SDS011;36548;50.506;30.834;2023-06-24T07:54:59;57.12;;;43.50;;
50591;SDS011;36548;50.506;30.834;2023-06-24T07:56:15;47.87;;;32.92;;
50591;SDS011;36548;50.506;30.834;2023-06-24T07:57:23;41.72;;;31.78;;
50591;SDS011;36548;50.506;30.834;2023-06-24T07:58:34;37.80;;;28.05;;
50591;SDS011;36548;50.506;30.834;2023-06-24T07:59:54;42.37;;;28.32;;
50591;SDS011;36548;50.506;30.834;2023-06-24T08:01:03;38.76;;;26.54;;
50591;SDS011;36548;50.506;30.834;2023-06-24T08:02:18;31.27;;;23.67;;
50591;SDS011;36548;50.506;30.834;2023-06-24T08:03:28;35.00;;;24.63;;
50591;SDS011;36548;50.506;30.834;2023-06-24T08:04:44;34.03;;;24.57;;
50591;SDS011;36548;50.506;30.834;2023-06-24T08:05:53;35.38;;;25.23;;
50591;SDS011;36548;50.506;30.834;2023-06-24T08:07:09;37.37;;;24.50;;
50591;SDS011;36548;50.506;30.834;2023-06-24T08:08:19;31.75;;;22.10;;
50591;SDS011;36548;50.506;30.834;2023-06-24T08:09:35;35.27;;;22.45;;
50591;SDS011;36548;50.506;30.834;2023-06-24T08:11:54;26.60;;;18.90;;
50591;SDS011;36548;50.506;30.834;2023-06-24T08:13:10;24.75;;;17.17;;
50591;SDS011;36548;50.506;30.834;2023-06-24T08:14:19;24.20;;;16.17;;
50591;SDS011;36548;50.506;30.834;2023-06-24T08:15:36;22.30;;;14.98;;